»·PEaware :: N42SB L88-KSBP

N42SB :: L88-KSBP

FLIGHT INFORMATION

Flight Status: Arrived
Operator: Privately registered:
United States
More flights under this callsign
Pilot: Brody Z. (18981)
Aircraft: CESSNA 172 SKYHAWK
(C172)
More flights by this aircraft type
Origin: L88 New Cuyama
United States
Destination: KSBP San Luis Co Regl
United States
More flights between these airports :: More routes between these airports
Route: DIRECT
File this flight plan on PilotEdge
Remarks: For the CAT-2 rating.
Altitude:
(Current/Filed)
6,500ft
Speed:
(Current/Filed)
110kts
Departed: 07-Aug-18 03:46 PM
Arrived: 07-Aug-18 04:39 PM
Distance/Time
Traveled:
50nm/0:52
Distance/Time
To Go:
Arrived

Flight Plot

Page will automatically refresh every two minutes.


Map Options




Map Legend


Flown Route
Filed Route
Departure Airport
Arrival Airport
Navaid (VOR, NDB)
Fix

Horizontal Profiles

Position Reports

Time Latitude Longitude Heading Altitude Ground
Speed
07-Aug-18 15:40 34.942823 -119.690216 204 2193ft 0kts
07-Aug-18 15:41 34.942748 -119.690160 120 2194ft 3kts
07-Aug-18 15:42 34.942878 -119.689755 1 2195ft 9kts
07-Aug-18 15:43 34.943558 -119.690685 257 2185ft 14kts
07-Aug-18 15:44 34.942332 -119.691001 144 2192ft 11kts
07-Aug-18 15:45 34.940845 -119.687801 118 2207ft 19kts
07-Aug-18 15:46 34.939513 -119.684442 286 2207ft 4kts
07-Aug-18 15:47 34.944921 -119.697210 289 2368ft 89kts
07-Aug-18 15:48 34.952437 -119.719427 288 3274ft 77kts
07-Aug-18 15:49 34.960066 -119.741441 288 4123ft 75kts
07-Aug-18 15:50 34.965305 -119.760460 284 4816ft 74kts
07-Aug-18 15:51 34.971869 -119.782912 285 5607ft 74kts
07-Aug-18 15:52 34.978140 -119.803675 285 6270ft 78kts
07-Aug-18 15:53 34.984466 -119.824391 287 6482ft 106kts
07-Aug-18 15:54 34.990611 -119.844157 287 6471ft 114kts
07-Aug-18 15:55 34.993752 -119.854241 287 6469ft 115kts
07-Aug-18 15:56 34.997797 -119.867235 287 6469ft 115kts
07-Aug-18 15:57 35.003366 -119.885146 287 6469ft 115kts
07-Aug-18 15:58 35.012357 -119.914106 287 6468ft 116kts
07-Aug-18 15:59 35.020949 -119.941829 286 6468ft 116kts
07-Aug-18 16:00 35.029507 -119.969468 286 6468ft 116kts
07-Aug-18 16:01 35.037614 -119.995645 286 6468ft 116kts
07-Aug-18 16:02 35.046172 -120.023353 286 6471ft 116kts
07-Aug-18 16:03 35.054627 -120.050754 287 6475ft 114kts
07-Aug-18 16:04 35.061825 -120.074076 287 6478ft 114kts
07-Aug-18 16:05 35.068653 -120.095282 288 6481ft 113kts
07-Aug-18 16:06 35.076340 -120.118707 288 6486ft 113kts
07-Aug-18 16:07 35.080934 -120.133247 288 6488ft 113kts
07-Aug-18 16:08 35.085029 -120.146407 288 6489ft 112kts
07-Aug-18 16:09 35.090366 -120.163680 288 6491ft 112kts
07-Aug-18 16:10 35.097006 -120.185236 288 6493ft 112kts
07-Aug-18 16:11 35.104310 -120.208984 288 6495ft 111kts
07-Aug-18 16:12 35.110480 -120.229065 288 6496ft 111kts
07-Aug-18 16:13 35.117030 -120.250400 288 6497ft 111kts
07-Aug-18 16:14 35.123007 -120.269880 288 6496ft 111kts
07-Aug-18 16:15 35.127394 -120.291174 280 6495ft 110kts
07-Aug-18 16:16 35.131536 -120.313174 287 6494ft 110kts
07-Aug-18 16:17 35.138999 -120.337937 289 6493ft 110kts
07-Aug-18 16:18 35.147246 -120.363839 289 6458ft 109kts
07-Aug-18 16:19 35.154499 -120.386166 290 6423ft 87kts
07-Aug-18 16:20 35.157336 -120.400926 281 6275ft 84kts
07-Aug-18 16:21 35.159250 -120.410206 283 6076ft 75kts
07-Aug-18 16:22 35.160550 -120.418425 281 5798ft 76kts
07-Aug-18 16:23 35.159621 -120.431662 269 5318ft 76kts
07-Aug-18 16:24 35.160229 -120.441651 279 4997ft 78kts
07-Aug-18 16:25 35.162109 -120.456394 284 4456ft 85kts
07-Aug-18 16:26 35.164866 -120.472879 283 4489ft 65kts
07-Aug-18 16:27 35.167539 -120.489076 283 4491ft 63kts
07-Aug-18 16:28 35.169735 -120.502094 283 4494ft 72kts
07-Aug-18 16:29 35.172665 -120.519779 285 4129ft 78kts
07-Aug-18 16:30 35.174742 -120.527959 293 3786ft 79kts
07-Aug-18 16:31 35.179965 -120.542154 301 3202ft 77kts
07-Aug-18 16:32 35.188336 -120.558489 304 2460ft 76kts
07-Aug-18 16:33 35.195159 -120.570494 310 1910ft 74kts
07-Aug-18 16:34 35.200736 -120.578541 313 1508ft 73kts
07-Aug-18 16:35 35.210698 -120.593209 309 1209ft 50kts
07-Aug-18 16:36 35.215627 -120.602991 303 1173ft 56kts
07-Aug-18 16:37 35.220414 -120.612047 309 916ft 67kts
07-Aug-18 16:38 35.226110 -120.621630 309 540ft 68kts
07-Aug-18 16:39 35.231878 -120.631544 308 290ft 61kts
07-Aug-18 16:40 35.236251 -120.639051 308 215ft 29kts
07-Aug-18 16:41 35.237709 -120.639967 338 215ft 10kts
07-Aug-18 16:42 35.238372 -120.640865 305 215ft 6kts
07-Aug-18 16:43 35.237680 -120.639725 122 215ft 10kts
07-Aug-18 16:44 35.235486 -120.635868 125 215ft 12kts
07-Aug-18 16:45 35.233267 -120.632392 199 215ft 9kts

Navigation Log

Ident Type
1. L88 Airport
2. KSBP Airport